createdAt,value
2023-03-02T00:00:02.239Z,87.3
2023-03-02T00:15:02.673Z,88.4
2023-03-02T00:30:03.120Z,88.2
2023-03-02T00:45:02.702Z,89.3
2023-03-02T01:00:03.008Z,89.3
2023-03-02T01:15:02.604Z,90.4
2023-03-02T01:30:02.899Z,91.7
2023-03-02T01:45:02.296Z,92.8
2023-03-02T02:00:02.754Z,94.2
2023-03-02T02:15:03.200Z,94.8
2023-03-02T02:30:02.704Z,95.0
2023-03-02T02:45:03.061Z,95.3
2023-03-02T03:00:02.707Z,95.6
2023-03-02T03:15:02.935Z,95.8
2023-03-02T03:30:02.349Z,96.0
2023-03-02T03:45:02.808Z,96.1
2023-03-02T04:00:02.257Z,96.2
2023-03-02T04:15:02.731Z,96.3
2023-03-02T04:30:03.182Z,96.6
2023-03-02T04:45:02.752Z,96.8
2023-03-02T05:00:03.014Z,97.1
2023-03-02T05:15:02.472Z,97.3
2023-03-02T05:30:02.910Z,97.4
2023-03-02T05:45:02.381Z,97.7
2023-03-02T06:00:02.790Z,97.8
2023-03-02T06:15:03.225Z,98.0
2023-03-02T06:30:02.777Z,98.2
2023-03-02T06:45:03.096Z,98.4
2023-03-02T07:00:02.747Z,98.5
2023-03-02T07:15:02.997Z,98.6
2023-03-02T07:30:02.409Z,98.7
2023-03-02T07:45:02.876Z,98.7
2023-03-02T08:00:02.307Z,98.8
2023-03-02T08:15:04.899Z,98.6
2023-03-02T08:30:02.188Z,98.6
2023-03-02T08:45:02.821Z,98.6
2023-03-02T09:00:02.031Z,98.3
2023-03-02T09:15:02.490Z,98.5
2023-03-02T09:30:02.940Z,97.9
2023-03-02T09:45:02.372Z,98.2
2023-03-02T10:00:16.491Z,98.0
2023-03-02T10:15:03.235Z,97.5
2023-03-02T10:30:02.819Z,97.2
2023-03-02T10:45:03.115Z,94.8
2023-03-02T11:00:02.516Z,92.4
2023-03-02T11:15:02.967Z,88.8
2023-03-02T11:30:02.390Z,82.7
2023-03-02T11:45:02.841Z,80.7
2023-03-02T12:00:03.270Z,75.0
2023-03-02T12:15:02.846Z,72.6
2023-03-02T12:30:02.180Z,71.1
2023-03-02T12:45:02.641Z,69.8
2023-03-02T13:00:03.025Z,71.3
2023-03-02T13:15:02.449Z,71.4
2023-03-02T13:30:02.900Z,72.8
2023-03-02T13:45:02.315Z,74.4
2023-03-02T14:00:02.858Z,75.7
2023-03-02T14:15:02.295Z,76.9
2023-03-02T14:30:02.852Z,79.9
2023-03-02T14:45:02.071Z,83.4
2023-03-02T15:00:02.529Z,85.4
2023-03-02T15:15:02.977Z,86.9
2023-03-02T15:30:02.400Z,88.5
2023-03-02T15:45:02.909Z,89.6
2023-03-02T16:00:04.874Z,90.6
2023-03-02T16:15:02.883Z,91.1
2023-03-02T16:30:02.146Z,91.9
2023-03-02T16:45:02.616Z,92.7
2023-03-02T17:00:03.063Z,93.2
2023-03-02T17:15:02.484Z,93.9
2023-03-02T17:30:02.916Z,94.6
2023-03-02T17:45:02.372Z,95.1
2023-03-02T18:00:02.930Z,95.5
2023-03-02T18:15:02.239Z,95.9
2023-03-02T18:30:02.901Z,96.3
2023-03-02T18:45:02.067Z,96.6
2023-03-02T19:00:02.504Z,96.8
2023-03-02T19:15:02.952Z,96.9
2023-03-02T19:30:02.404Z,97.3
2023-03-02T19:45:02.919Z,97.5
2023-03-02T20:00:02.416Z,97.7
2023-03-02T20:15:02.920Z,97.8
2023-03-02T20:30:02.184Z,98.0
2023-03-02T20:45:02.644Z,98.1
2023-03-02T21:00:03.047Z,98.3
2023-03-02T21:15:02.467Z,98.4
2023-03-02T21:30:02.930Z,98.4
2023-03-02T21:45:02.343Z,98.5
2023-03-02T22:00:02.945Z,98.6
2023-03-02T22:15:02.229Z,98.6
2023-03-02T22:30:02.679Z,98.7
2023-03-02T22:45:03.133Z,98.7
2023-03-02T23:00:02.534Z,98.7
2023-03-02T23:15:03.001Z,98.7
2023-03-02T23:30:02.401Z,98.8
2023-03-02T23:45:02.964Z,98.8
